sensor_id;sensor_type;location;lat;lon;timestamp;pressure;altitude;pressure_sealevel;temperature;humidity
75604;BME280;64187;51.010;13.792;2022-11-20T00:00:16;99968.31;;;-3.52;71.81
75604;BME280;64187;51.010;13.792;2022-11-20T00:05:16;99962.41;;;-3.38;72.09
75604;BME280;64187;51.010;13.792;2022-11-20T00:10:15;99962.22;;;-3.79;73.26
75604;BME280;64187;51.010;13.792;2022-11-20T00:15:14;99963.16;;;-3.96;74.67
75604;BME280;64187;51.010;13.792;2022-11-20T00:20:14;99955.81;;;-3.68;72.61
75604;BME280;64187;51.010;13.792;2022-11-20T00:25:14;99955.44;;;-3.81;72.57
75604;BME280;64187;51.010;13.792;2022-11-20T00:30:13;99956.81;;;-3.77;73.09
75604;BME280;64187;51.010;13.792;2022-11-20T00:35:13;99973.72;;;-3.96;73.48
75604;BME280;64187;51.010;13.792;2022-11-20T00:40:12;99969.88;;;-4.02;73.30
75604;BME280;64187;51.010;13.792;2022-11-20T00:45:11;99976.72;;;-3.91;73.86
75604;BME280;64187;51.010;13.792;2022-11-20T00:50:10;99984.66;;;-3.91;72.82
75604;BME280;64187;51.010;13.792;2022-11-20T00:55:09;99978.19;;;-3.62;71.78
75604;BME280;64187;51.010;13.792;2022-11-20T01:00:08;99983.81;;;-4.18;73.65
75604;BME280;64187;51.010;13.792;2022-11-20T01:05:10;99979.63;;;-4.55;75.32
75604;BME280;64187;51.010;13.792;2022-11-20T01:10:09;99984.66;;;-4.43;74.60
75604;BME280;64187;51.010;13.792;2022-11-20T01:15:08;99985.91;;;-4.47;75.32
75604;BME280;64187;51.010;13.792;2022-11-20T01:20:07;99979.22;;;-4.42;74.13
75604;BME280;64187;51.010;13.792;2022-11-20T01:25:07;99973.22;;;-4.26;73.42
75604;BME280;64187;51.010;13.792;2022-11-20T01:30:06;99971.59;;;-4.19;72.92
75604;BME280;64187;51.010;13.792;2022-11-20T01:35:05;99969.25;;;-3.61;71.23
75604;BME280;64187;51.010;13.792;2022-11-20T01:40:05;99964.03;;;-3.87;71.43
75604;BME280;64187;51.010;13.792;2022-11-20T01:51:02;99958.53;;;-4.20;72.16
75604;BME280;64187;51.010;13.792;2022-11-20T01:56:05;99958.00;;;-4.32;72.67
75604;BME280;64187;51.010;13.792;2022-11-20T02:01:06;99964.72;;;-4.12;71.79
75604;BME280;64187;51.010;13.792;2022-11-20T02:06:51;99959.88;;;-4.42;73.29
75604;BME280;64187;51.010;13.792;2022-11-20T02:11:55;99958.03;;;-4.68;73.42
75604;BME280;64187;51.010;13.792;2022-11-20T02:16:54;99954.84;;;-4.53;73.16
75604;BME280;64187;51.010;13.792;2022-11-20T02:22:18;99941.69;;;-4.45;72.00
75604;BME280;64187;51.010;13.792;2022-11-20T02:27:18;99948.75;;;-4.54;72.62
75604;BME280;64187;51.010;13.792;2022-11-20T02:32:21;99944.28;;;-4.01;70.47
75604;BME280;64187;51.010;13.792;2022-11-20T02:37:21;99939.25;;;-4.65;72.03
75604;BME280;64187;51.010;13.792;2022-11-20T02:42:20;99940.56;;;-4.43;71.70
75604;BME280;64187;51.010;13.792;2022-11-20T02:47:19;99941.50;;;-4.52;71.65
75604;BME280;64187;51.010;13.792;2022-11-20T02:52:18;99938.78;;;-4.60;72.63
75604;BME280;64187;51.010;13.792;2022-11-20T02:57:17;99942.81;;;-4.74;72.79
75604;BME280;64187;51.010;13.792;2022-11-20T03:02:16;99937.31;;;-4.81;73.24
75604;BME280;64187;51.010;13.792;2022-11-20T03:07:15;99934.31;;;-5.04;74.33
75604;BME280;64187;51.010;13.792;2022-11-20T03:12:14;99930.25;;;-4.54;73.57
75604;BME280;64187;51.010;13.792;2022-11-20T03:17:13;99918.72;;;-4.27;72.38
75604;BME280;64187;51.010;13.792;2022-11-20T03:22:12;99923.75;;;-4.07;71.30
75604;BME280;64187;51.010;13.792;2022-11-20T03:27:11;99917.94;;;-4.89;72.57
75604;BME280;64187;51.010;13.792;2022-11-20T03:32:09;99919.06;;;-4.48;71.79
75604;BME280;64187;51.010;13.792;2022-11-20T03:37:08;99919.88;;;-4.21;70.30
75604;BME280;64187;51.010;13.792;2022-11-20T03:42:08;99919.81;;;-4.82;72.87
75604;BME280;64187;51.010;13.792;2022-11-20T03:47:27;99925.09;;;-4.82;71.90
75604;BME280;64187;51.010;13.792;2022-11-20T03:52:27;99929.81;;;-4.49;71.48
75604;BME280;64187;51.010;13.792;2022-11-20T03:57:25;99924.09;;;-4.81;71.91
75604;BME280;64187;51.010;13.792;2022-11-20T04:02:24;99921.97;;;-4.77;72.28
75604;BME280;64187;51.010;13.792;2022-11-20T04:07:23;99914.09;;;-4.51;71.92
75604;BME280;64187;51.010;13.792;2022-11-20T04:12:22;99910.19;;;-4.65;72.06
75604;BME280;64187;51.010;13.792;2022-11-20T04:17:21;99914.31;;;-4.88;72.89
75604;BME280;64187;51.010;13.792;2022-11-20T04:22:19;99902.31;;;-4.30;71.08
75604;BME280;64187;51.010;13.792;2022-11-20T04:27:18;99905.59;;;-4.63;71.70
75604;BME280;64187;51.010;13.792;2022-11-20T04:32:17;99895.19;;;-4.38;70.43
75604;BME280;64187;51.010;13.792;2022-11-20T04:37:16;99896.25;;;-5.19;72.59
75604;BME280;64187;51.010;13.792;2022-11-20T04:42:15;99884.19;;;-5.04;72.79
75604;BME280;64187;51.010;13.792;2022-11-20T04:47:29;99883.38;;;-4.78;71.79
75604;BME280;64187;51.010;13.792;2022-11-20T04:52:27;99884.53;;;-4.55;71.90
75604;BME280;64187;51.010;13.792;2022-11-20T04:57:26;99885.56;;;-4.73;73.01
75604;BME280;64187;51.010;13.792;2022-11-20T05:02:25;99897.22;;;-4.58;71.76
75604;BME280;64187;51.010;13.792;2022-11-20T05:07:24;99896.38;;;-4.59;72.45
75604;BME280;64187;51.010;13.792;2022-11-20T05:12:23;99896.13;;;-4.73;72.14
75604;BME280;64187;51.010;13.792;2022-11-20T05:17:22;99898.03;;;-4.84;73.08
75604;BME280;64187;51.010;13.792;2022-11-20T05:22:20;99896.84;;;-4.37;70.63
75604;BME280;64187;51.010;13.792;2022-11-20T05:27:20;99882.56;;;-4.79;71.74
75604;BME280;64187;51.010;13.792;2022-11-20T05:32:18;99890.66;;;-5.16;73.03
75604;BME280;64187;51.010;13.792;2022-11-20T05:37:17;99886.44;;;-5.27;73.34
75604;BME280;64187;51.010;13.792;2022-11-20T05:42:16;99876.75;;;-4.56;70.79
75604;BME280;64187;51.010;13.792;2022-11-20T05:47:33;99879.94;;;-5.14;72.74
75604;BME280;64187;51.010;13.792;2022-11-20T05:52:32;99884.25;;;-5.13;72.19
75604;BME280;64187;51.010;13.792;2022-11-20T05:57:31;99879.34;;;-5.08;72.45
75604;BME280;64187;51.010;13.792;2022-11-20T06:02:30;99869.41;;;-4.96;70.83
75604;BME280;64187;51.010;13.792;2022-11-20T06:07:33;99870.06;;;-5.12;71.74
75604;BME280;64187;51.010;13.792;2022-11-20T06:12:32;99870.25;;;-5.14;72.11
75604;BME280;64187;51.010;13.792;2022-11-20T06:17:31;99872.44;;;-4.57;70.08
75604;BME280;64187;51.010;13.792;2022-11-20T06:22:31;99858.31;;;-4.48;68.93
75604;BME280;64187;51.010;13.792;2022-11-20T06:27:30;99869.75;;;-5.09;71.64
75604;BME280;64187;51.010;13.792;2022-11-20T06:32:29;99867.38;;;-5.21;72.25
75604;BME280;64187;51.010;13.792;2022-11-20T06:37:28;99864.94;;;-4.70;70.13
75604;BME280;64187;51.010;13.792;2022-11-20T06:42:27;99862.66;;;-4.65;71.26
75604;BME280;64187;51.010;13.792;2022-11-20T06:47:25;99859.88;;;-4.63;71.76
75604;BME280;64187;51.010;13.792;2022-11-20T06:52:24;99859.72;;;-4.62;72.26
75604;BME280;64187;51.010;13.792;2022-11-20T06:57:23;99860.69;;;-4.63;72.18
75604;BME280;64187;51.010;13.792;2022-11-20T07:02:22;99850.13;;;-4.02;69.78
75604;BME280;64187;51.010;13.792;2022-11-20T07:07:21;99842.63;;;-4.15;69.61
75604;BME280;64187;51.010;13.792;2022-11-20T07:12:20;99852.09;;;-4.39;70.94
75604;BME280;64187;51.010;13.792;2022-11-20T07:17:19;99841.38;;;-4.37;71.47
75604;BME280;64187;51.010;13.792;2022-11-20T07:22:18;99845.13;;;-4.05;70.96
75604;BME280;64187;51.010;13.792;2022-11-20T07:27:16;99847.16;;;-3.99;71.76
75604;BME280;64187;51.010;13.792;2022-11-20T07:32:15;99842.91;;;-3.76;71.24
75604;BME280;64187;51.010;13.792;2022-11-20T07:37:15;99839.94;;;-3.73;71.18
75604;BME280;64187;51.010;13.792;2022-11-20T07:42:14;99845.59;;;-3.43;70.08
75604;BME280;64187;51.010;13.792;2022-11-20T07:47:13;99832.06;;;-3.23;69.46
75604;BME280;64187;51.010;13.792;2022-11-20T07:52:12;99834.22;;;-2.94;68.98
75604;BME280;64187;51.010;13.792;2022-11-20T07:57:11;99828.75;;;-3.09;70.34
75604;BME280;64187;51.010;13.792;2022-11-20T08:02:10;99822.13;;;-2.80;68.28
75604;BME280;64187;51.010;13.792;2022-11-20T08:07:09;99819.81;;;-2.75;69.32
75604;BME280;64187;51.010;13.792;2022-11-20T08:12:17;99819.44;;;-2.17;68.71
75604;BME280;64187;51.010;13.792;2022-11-20T08:17:35;99816.00;;;-2.25;67.71
75604;BME280;64187;51.010;13.792;2022-11-20T08:22:34;99821.47;;;-1.87;67.22
75604;BME280;64187;51.010;13.792;2022-11-20T08:27:33;99824.25;;;-1.81;68.15
75604;BME280;64187;51.010;13.792;2022-11-20T08:32:33;99820.13;;;-1.83;68.90
75604;BME280;64187;51.010;13.792;2022-11-20T08:37:34;99821.03;;;-1.22;67.63
75604;BME280;64187;51.010;13.792;2022-11-20T08:42:33;99814.84;;;-0.76;66.74
75604;BME280;64187;51.010;13.792;2022-11-20T08:47:31;99813.03;;;-0.46;64.79
75604;BME280;64187;51.010;13.792;2022-11-20T08:52:30;99809.34;;;-0.15;64.37
75604;BME280;64187;51.010;13.792;2022-11-20T08:57:37;99798.25;;;-0.49;64.51
75604;BME280;64187;51.010;13.792;2022-11-20T09:02:36;99783.78;;;-0.61;65.35
75604;BME280;64187;51.010;13.792;2022-11-20T09:07:35;99779.19;;;-0.37;65.61
75604;BME280;64187;51.010;13.792;2022-11-20T09:12:33;99769.66;;;-0.47;64.80
75604;BME280;64187;51.010;13.792;2022-11-20T09:17:32;99776.44;;;-0.74;66.50
75604;BME280;64187;51.010;13.792;2022-11-20T09:22:31;99768.78;;;-0.17;63.11
75604;BME280;64187;51.010;13.792;2022-11-20T09:27:31;99774.94;;;-0.17;72.83
75604;BME280;64187;51.010;13.792;2022-11-20T09:32:30;99763.22;;;5.59;85.24
75604;BME280;64187;51.010;13.792;2022-11-20T09:37:28;99757.59;;;7.99;56.48
75604;BME280;64187;51.010;13.792;2022-11-20T09:57:54;99759.88;;;1.61;57.01
75604;BME280;64187;51.010;13.792;2022-11-20T10:03:03;99770.66;;;1.39;57.60
75604;BME280;64187;51.010;13.792;2022-11-20T10:08:23;99770.94;;;0.95;59.75
75604;BME280;64187;51.010;13.792;2022-11-20T10:19:10;99749.50;;;1.38;58.35
75604;BME280;64187;51.010;13.792;2022-11-20T10:24:43;99734.44;;;1.65;58.36
75604;BME280;64187;51.010;13.792;2022-11-20T10:29:47;99722.88;;;2.06;56.58
75604;BME280;64187;51.010;13.792;2022-11-20T10:34:59;99720.22;;;1.99;57.49
75604;BME280;64187;51.010;13.792;2022-11-20T10:40:42;99720.47;;;2.37;54.75
75604;BME280;64187;51.010;13.792;2022-11-20T10:45:52;99723.50;;;2.08;56.72
75604;BME280;64187;51.010;13.792;2022-11-20T11:01:28;99725.22;;;2.29;57.54
75604;BME280;64187;51.010;13.792;2022-11-20T11:06:43;99717.81;;;3.04;56.69
75604;BME280;64187;51.010;13.792;2022-11-20T11:11:45;99714.31;;;2.97;55.79
75604;BME280;64187;51.010;13.792;2022-11-20T11:16:52;99698.09;;;2.52;57.61
75604;BME280;64187;51.010;13.792;2022-11-20T11:21:54;99704.88;;;2.48;59.06
75604;BME280;64187;51.010;13.792;2022-11-20T11:27:01;99691.50;;;2.94;57.55
75604;BME280;64187;51.010;13.792;2022-11-20T11:37:04;99675.25;;;2.89;57.13
75604;BME280;64187;51.010;13.792;2022-11-20T11:42:13;99675.91;;;2.51;59.02
75604;BME280;64187;51.010;13.792;2022-11-20T11:47:24;99663.34;;;2.65;59.78
75604;BME280;64187;51.010;13.792;2022-11-20T11:52:25;99647.25;;;1.79;63.09
75604;BME280;64187;51.010;13.792;2022-11-20T11:57:52;99638.28;;;2.13;62.91
75604;BME280;64187;51.010;13.792;2022-11-20T12:02:55;99640.34;;;2.37;61.67
75604;BME280;64187;51.010;13.792;2022-11-20T12:08:05;99634.19;;;2.10;62.86
75604;BME280;64187;51.010;13.792;2022-11-20T12:18:20;99622.03;;;1.75;64.91
75604;BME280;64187;51.010;13.792;2022-11-20T12:29:25;99620.19;;;1.82;66.24
75604;BME280;64187;51.010;13.792;2022-11-20T12:39:41;99639.69;;;1.82;65.72
75604;BME280;64187;51.010;13.792;2022-11-20T12:50:27;99625.72;;;1.80;65.98
75604;BME280;64187;51.010;13.792;2022-11-20T12:55:40;99623.09;;;2.13;65.97
75604;BME280;64187;51.010;13.792;2022-11-20T13:00:52;99620.22;;;2.22;65.19
75604;BME280;64187;51.010;13.792;2022-11-20T13:06:16;99621.66;;;2.37;64.90
75604;BME280;64187;51.010;13.792;2022-11-20T13:21:43;99617.97;;;2.39;65.73
75604;BME280;64187;51.010;13.792;2022-11-20T13:26:45;99610.97;;;2.57;65.54
75604;BME280;64187;51.010;13.792;2022-11-20T13:31:46;99594.06;;;2.84;65.09
75604;BME280;64187;51.010;13.792;2022-11-20T13:36:50;99595.00;;;3.09;64.42
75604;BME280;64187;51.010;13.792;2022-11-20T13:41:58;99589.59;;;3.22;63.73
75604;BME280;64187;51.010;13.792;2022-11-20T13:46:58;99592.59;;;3.39;63.36
75604;BME280;64187;51.010;13.792;2022-11-20T14:02:23;99590.75;;;3.40;63.55
75604;BME280;64187;51.010;13.792;2022-11-20T14:07:27;99603.16;;;3.28;64.06
75604;BME280;64187;51.010;13.792;2022-11-20T14:12:32;99589.78;;;2.63;66.53
75604;BME280;64187;51.010;13.792;2022-11-20T14:17:33;99600.06;;;2.52;66.26
75604;BME280;64187;51.010;13.792;2022-11-20T14:22:33;99602.16;;;2.24;67.43
75604;BME280;64187;51.010;13.792;2022-11-20T14:27:40;99597.63;;;1.98;67.66
75604;BME280;64187;51.010;13.792;2022-11-20T14:32:40;99591.06;;;2.00;67.32
75604;BME280;64187;51.010;13.792;2022-11-20T14:37:40;99595.19;;;2.09;66.86
75604;BME280;64187;51.010;13.792;2022-11-20T14:42:43;99601.88;;;1.65;68.12
75604;BME280;64187;51.010;13.792;2022-11-20T14:47:43;99603.31;;;1.68;68.51
75604;BME280;64187;51.010;13.792;2022-11-20T14:52:50;99581.34;;;1.66;69.23
75604;BME280;64187;51.010;13.792;2022-11-20T14:57:55;99580.97;;;1.62;69.35
75604;BME280;64187;51.010;13.792;2022-11-20T15:02:55;99581.78;;;1.69;69.19
75604;BME280;64187;51.010;13.792;2022-11-20T15:08:07;99583.66;;;1.96;68.28
75604;BME280;64187;51.010;13.792;2022-11-20T15:13:24;99579.97;;;2.03;67.46
75604;BME280;64187;51.010;13.792;2022-11-20T15:18:37;99583.63;;;1.69;69.37
75604;BME280;64187;51.010;13.792;2022-11-20T15:23:36;99579.97;;;1.77;68.73
75604;BME280;64187;51.010;13.792;2022-11-20T15:28:40;99575.22;;;1.79;68.86
75604;BME280;64187;51.010;13.792;2022-11-20T15:33:39;99573.97;;;1.68;69.71
75604;BME280;64187;51.010;13.792;2022-11-20T15:38:38;99571.47;;;1.46;69.88
75604;BME280;64187;51.010;13.792;2022-11-20T15:43:37;99585.41;;;1.35;70.54
75604;BME280;64187;51.010;13.792;2022-11-20T15:48:42;99578.78;;;1.18;71.51
75604;BME280;64187;51.010;13.792;2022-11-20T15:53:46;99577.09;;;1.10;71.56
75604;BME280;64187;51.010;13.792;2022-11-20T15:58:45;99572.94;;;0.59;73.11
75604;BME280;64187;51.010;13.792;2022-11-20T16:03:44;99561.41;;;0.80;72.75
75604;BME280;64187;51.010;13.792;2022-11-20T16:08:43;99570.22;;;0.81;72.27
75604;BME280;64187;51.010;13.792;2022-11-20T16:13:42;99564.84;;;0.74;72.26
75604;BME280;64187;51.010;13.792;2022-11-20T16:18:59;99572.81;;;0.74;71.50
75604;BME280;64187;51.010;13.792;2022-11-20T16:24:00;99577.22;;;0.89;71.00
75604;BME280;64187;51.010;13.792;2022-11-20T16:29:00;99584.22;;;0.96;70.27
75604;BME280;64187;51.010;13.792;2022-11-20T16:34:06;99591.44;;;0.68;71.46
75604;BME280;64187;51.010;13.792;2022-11-20T16:39:12;99590.69;;;0.80;70.73
75604;BME280;64187;51.010;13.792;2022-11-20T16:44:17;99598.22;;;0.42;72.89
75604;BME280;64187;51.010;13.792;2022-11-20T16:49:17;99593.94;;;0.13;73.23
75604;BME280;64187;51.010;13.792;2022-11-20T16:54:16;99600.16;;;0.27;73.49
75604;BME280;64187;51.010;13.792;2022-11-20T16:59:19;99587.69;;;0.27;73.68
75604;BME280;64187;51.010;13.792;2022-11-20T17:04:18;99588.94;;;0.03;73.44
75604;BME280;64187;51.010;13.792;2022-11-20T17:09:17;99585.25;;;0.04;73.58
75604;BME280;64187;51.010;13.792;2022-11-20T17:14:15;99602.81;;;-0.23;73.69
75604;BME280;64187;51.010;13.792;2022-11-20T17:19:14;99595.72;;;-0.37;74.55
75604;BME280;64187;51.010;13.792;2022-11-20T17:24:13;99587.53;;;-0.57;76.04
75604;BME280;64187;51.010;13.792;2022-11-20T17:29:16;99584.00;;;-0.64;75.30
75604;BME280;64187;51.010;13.792;2022-11-20T17:34:15;99588.13;;;-0.40;74.64
75604;BME280;64187;51.010;13.792;2022-11-20T17:39:15;99585.72;;;-1.23;76.98
75604;BME280;64187;51.010;13.792;2022-11-20T17:44:14;99571.03;;;-0.89;76.59
75604;BME280;64187;51.010;13.792;2022-11-20T17:49:13;99581.50;;;-1.02;77.40
75604;BME280;64187;51.010;13.792;2022-11-20T17:54:16;99588.53;;;-0.95;76.30
75604;BME280;64187;51.010;13.792;2022-11-20T17:59:16;99581.44;;;-1.24;77.17
75604;BME280;64187;51.010;13.792;2022-11-20T18:04:16;99576.56;;;-1.35;77.30
75604;BME280;64187;51.010;13.792;2022-11-20T18:09:15;99567.63;;;-1.49;77.71
75604;BME280;64187;51.010;13.792;2022-11-20T18:14:15;99558.25;;;-1.15;77.26
75604;BME280;64187;51.010;13.792;2022-11-20T18:19:36;99558.72;;;-1.71;78.48
75604;BME280;64187;51.010;13.792;2022-11-20T18:24:49;99556.78;;;-1.77;77.82
75604;BME280;64187;51.010;13.792;2022-11-20T18:29:47;99555.41;;;-1.88;78.16
75604;BME280;64187;51.010;13.792;2022-11-20T18:34:49;99554.38;;;-1.87;77.84
75604;BME280;64187;51.010;13.792;2022-11-20T18:39:48;99554.31;;;-1.93;78.41
75604;BME280;64187;51.010;13.792;2022-11-20T18:44:48;99555.94;;;-1.92;77.48
75604;BME280;64187;51.010;13.792;2022-11-20T18:49:52;99546.31;;;-2.08;77.97
75604;BME280;64187;51.010;13.792;2022-11-20T19:00:20;99549.16;;;-1.95;77.67
75604;BME280;64187;51.010;13.792;2022-11-20T19:05:19;99546.63;;;-1.88;76.76
75604;BME280;64187;51.010;13.792;2022-11-20T19:10:18;99541.31;;;-1.88;77.64
75604;BME280;64187;51.010;13.792;2022-11-20T19:15:17;99548.94;;;-1.56;77.21
75604;BME280;64187;51.010;13.792;2022-11-20T19:20:16;99539.50;;;-1.73;76.99
75604;BME280;64187;51.010;13.792;2022-11-20T19:25:16;99539.00;;;-1.91;77.75
75604;BME280;64187;51.010;13.792;2022-11-20T19:30:15;99535.94;;;-1.80;78.56
75604;BME280;64187;51.010;13.792;2022-11-20T19:35:14;99537.41;;;-1.48;78.66
75604;BME280;64187;51.010;13.792;2022-11-20T19:40:13;99520.47;;;-1.47;79.29
75604;BME280;64187;51.010;13.792;2022-11-20T19:45:12;99510.13;;;-1.42;80.09
75604;BME280;64187;51.010;13.792;2022-11-20T19:50:11;99514.81;;;-1.44;80.21
75604;BME280;64187;51.010;13.792;2022-11-20T19:55:10;99519.28;;;-1.44;79.49
75604;BME280;64187;51.010;13.792;2022-11-20T20:06:36;99520.19;;;-1.67;78.23
75604;BME280;64187;51.010;13.792;2022-11-20T20:11:37;99512.06;;;-1.80;79.80
75604;BME280;64187;51.010;13.792;2022-11-20T20:16:36;99510.41;;;-1.81;79.10
75604;BME280;64187;51.010;13.792;2022-11-20T20:21:35;99499.34;;;-1.70;79.13
75604;BME280;64187;51.010;13.792;2022-11-20T20:26:33;99498.16;;;-1.67;79.50
75604;BME280;64187;51.010;13.792;2022-11-20T20:36:30;99491.44;;;-0.97;78.12
75604;BME280;64187;51.010;13.792;2022-11-20T20:41:29;99486.00;;;-1.11;78.57
75604;BME280;64187;51.010;13.792;2022-11-20T20:46:28;99490.84;;;-0.78;77.38
75604;BME280;64187;51.010;13.792;2022-11-20T20:51:27;99477.16;;;-0.96;78.02
75604;BME280;64187;51.010;13.792;2022-11-20T20:56:26;99470.56;;;-1.00;77.84
75604;BME280;64187;51.010;13.792;2022-11-20T21:01:25;99456.66;;;-1.02;77.82
75604;BME280;64187;51.010;13.792;2022-11-20T21:06:26;99443.78;;;-0.84;76.91
75604;BME280;64187;51.010;13.792;2022-11-20T21:11:25;99443.78;;;-0.84;77.10
75604;BME280;64187;51.010;13.792;2022-11-20T21:16:24;99440.72;;;-1.02;77.06
75604;BME280;64187;51.010;13.792;2022-11-20T21:21:22;99430.28;;;-0.82;77.04
75604;BME280;64187;51.010;13.792;2022-11-20T21:26:40;99400.16;;;-0.68;76.33
75604;BME280;64187;51.010;13.792;2022-11-20T21:31:39;99395.81;;;-0.76;76.89
75604;BME280;64187;51.010;13.792;2022-11-20T21:36:37;99389.13;;;-0.72;76.40
75604;BME280;64187;51.010;13.792;2022-11-20T21:41:37;99373.09;;;-0.78;76.50
75604;BME280;64187;51.010;13.792;2022-11-20T21:46:38;99365.09;;;-0.57;75.92
75604;BME280;64187;51.010;13.792;2022-11-20T21:51:37;99364.56;;;-0.11;73.96
75604;BME280;64187;51.010;13.792;2022-11-20T21:56:36;99353.47;;;-0.21;74.10
75604;BME280;64187;51.010;13.792;2022-11-20T22:01:35;99346.16;;;-0.47;75.23
75604;BME280;64187;51.010;13.792;2022-11-20T22:06:34;99344.25;;;-0.53;75.38
75604;BME280;64187;51.010;13.792;2022-11-20T22:11:32;99335.13;;;-0.44;75.64
75604;BME280;64187;51.010;13.792;2022-11-20T22:16:32;99331.28;;;-0.35;75.27
75604;BME280;64187;51.010;13.792;2022-11-20T22:21:32;99317.47;;;-0.17;74.12
75604;BME280;64187;51.010;13.792;2022-11-20T22:26:34;99307.25;;;-0.13;74.64
75604;BME280;64187;51.010;13.792;2022-11-20T22:31:37;99297.88;;;-0.03;73.92
75604;BME280;64187;51.010;13.792;2022-11-20T22:36:37;99298.81;;;0.31;73.00
75604;BME280;64187;51.010;13.792;2022-11-20T22:41:36;99295.13;;;0.32;72.79
75604;BME280;64187;51.010;13.792;2022-11-20T22:46:36;99288.97;;;0.18;74.61
75604;BME280;64187;51.010;13.792;2022-11-20T22:51:38;99281.13;;;0.04;75.15
75604;BME280;64187;51.010;13.792;2022-11-20T22:56:37;99275.66;;;0.18;74.83
75604;BME280;64187;51.010;13.792;2022-11-20T23:01:36;99265.47;;;0.49;74.50
75604;BME280;64187;51.010;13.792;2022-11-20T23:06:35;99260.78;;;0.37;74.75
75604;BME280;64187;51.010;13.792;2022-11-20T23:11:34;99260.25;;;0.07;76.58
75604;BME280;64187;51.010;13.792;2022-11-20T23:16:34;99247.00;;;0.20;76.22
75604;BME280;64187;51.010;13.792;2022-11-20T23:21:35;99234.75;;;0.46;76.00
75604;BME280;64187;51.010;13.792;2022-11-20T23:26:36;99223.91;;;0.54;75.32
75604;BME280;64187;51.010;13.792;2022-11-20T23:31:36;99224.53;;;0.43;75.98
75604;BME280;64187;51.010;13.792;2022-11-20T23:36:35;99216.53;;;0.43;76.28
75604;BME280;64187;51.010;13.792;2022-11-20T23:41:34;99212.84;;;0.51;76.04
75604;BME280;64187;51.010;13.792;2022-11-20T23:46:33;99195.63;;;0.47;76.52
75604;BME280;64187;51.010;13.792;2022-11-20T23:51:31;99196.47;;;0.40;77.11
75604;BME280;64187;51.010;13.792;2022-11-20T23:56:30;99197.69;;;0.51;76.52
